Terminal Aerodrome Forecast
Issued by NWS

Home | Current Version | Previous Version | Text Only | Print | Product List | Glossary On
Versions: 1 2 3 4 5 6 7 8 9 10 11 12 13 14 15 16 17 18 19
565
FTUS41 KLWX 161720
TAFMTN
TAF
KMTN 161720Z 1618/1718 24011G18KT P6SM SCT060 BKN200
     FM162100 23009KT P6SM FEW050 SCT200
     FM170200 27005KT P6SM FEW060 SCT250
     FM171700 VRB03KT P6SM SCT040 BKN200=

USA.gov is the U.S. government's official web portal to all federal, state and local government web resources and services.